sensor_id;sensor_type;location;lat;lon;timestamp;temperature;humidity
23100;DHT22;53791;50.696;4.396;2023-05-10T00:00:52;13.20;99.90
23100;DHT22;53791;50.696;4.396;2023-05-10T00:03:21;13.20;99.90
23100;DHT22;53791;50.696;4.396;2023-05-10T00:05:50;13.10;99.90
23100;DHT22;53791;50.696;4.396;2023-05-10T00:08:19;13.10;99.90
23100;DHT22;53791;50.696;4.396;2023-05-10T00:10:52;13.10;99.90
23100;DHT22;53791;50.696;4.396;2023-05-10T00:13:29;13.10;99.90
23100;DHT22;53791;50.696;4.396;2023-05-10T00:15:59;13.10;99.90
23100;DHT22;53791;50.696;4.396;2023-05-10T00:18:29;13.20;99.90
23100;DHT22;53791;50.696;4.396;2023-05-10T00:21:03;13.10;99.90
23100;DHT22;53791;50.696;4.396;2023-05-10T00:23:39;13.20;99.90
23100;DHT22;53791;50.696;4.396;2023-05-10T00:26:12;13.20;99.90
23100;DHT22;53791;50.696;4.396;2023-05-10T00:28:41;13.20;99.90
23100;DHT22;53791;50.696;4.396;2023-05-10T00:31:16;13.20;99.90
23100;DHT22;53791;50.696;4.396;2023-05-10T00:33:48;13.20;99.90
23100;DHT22;53791;50.696;4.396;2023-05-10T00:36:22;13.20;99.90
23100;DHT22;53791;50.696;4.396;2023-05-10T00:38:58;13.20;99.90
23100;DHT22;53791;50.696;4.396;2023-05-10T00:41:33;13.20;99.90
23100;DHT22;53791;50.696;4.396;2023-05-10T00:44:09;13.10;99.90
23100;DHT22;53791;50.696;4.396;2023-05-10T00:46:41;13.10;99.90
23100;DHT22;53791;50.696;4.396;2023-05-10T00:49:14;13.20;99.90
23100;DHT22;53791;50.696;4.396;2023-05-10T00:51:47;13.20;99.90
23100;DHT22;53791;50.696;4.396;2023-05-10T00:54:17;13.20;99.90
23100;DHT22;53791;50.696;4.396;2023-05-10T00:56:54;13.40;99.90
23100;DHT22;53791;50.696;4.396;2023-05-10T00:59:28;13.30;99.90
23100;DHT22;53791;50.696;4.396;2023-05-10T01:01:57;13.30;99.90
23100;DHT22;53791;50.696;4.396;2023-05-10T01:04:36;13.20;99.90
23100;DHT22;53791;50.696;4.396;2023-05-10T01:07:15;13.20;99.90
23100;DHT22;53791;50.696;4.396;2023-05-10T01:09:45;13.30;99.90
23100;DHT22;53791;50.696;4.396;2023-05-10T01:12:15;13.40;99.90
23100;DHT22;53791;50.696;4.396;2023-05-10T01:14:47;13.40;99.90
23100;DHT22;53791;50.696;4.396;2023-05-10T01:17:18;13.30;99.90
23100;DHT22;53791;50.696;4.396;2023-05-10T01:19:55;13.30;99.90
23100;DHT22;53791;50.696;4.396;2023-05-10T01:25:49;13.40;99.90
23100;DHT22;53791;50.696;4.396;2023-05-10T01:28:27;13.20;99.90
23100;DHT22;53791;50.696;4.396;2023-05-10T01:36:26;13.20;99.90
23100;DHT22;53791;50.696;4.396;2023-05-10T01:39:11;13.20;99.90
23100;DHT22;53791;50.696;4.396;2023-05-10T01:41:49;13.30;99.90
23100;DHT22;53791;50.696;4.396;2023-05-10T01:44:29;13.40;99.90
23100;DHT22;53791;50.696;4.396;2023-05-10T01:47:12;13.40;99.90
23100;DHT22;53791;50.696;4.396;2023-05-10T01:49:39;13.30;99.90
23100;DHT22;53791;50.696;4.396;2023-05-10T01:52:14;13.20;99.90
23100;DHT22;53791;50.696;4.396;2023-05-10T01:54:53;13.20;99.90
23100;DHT22;53791;50.696;4.396;2023-05-10T01:57:20;13.30;99.90
23100;DHT22;53791;50.696;4.396;2023-05-10T02:00:00;13.30;99.90
23100;DHT22;53791;50.696;4.396;2023-05-10T02:02:36;13.20;99.90
23100;DHT22;53791;50.696;4.396;2023-05-10T02:05:00;13.10;99.90
23100;DHT22;53791;50.696;4.396;2023-05-10T02:07:34;13.20;99.90
23100;DHT22;53791;50.696;4.396;2023-05-10T02:10:12;13.20;99.90
23100;DHT22;53791;50.696;4.396;2023-05-10T02:12:37;13.20;99.90
23100;DHT22;53791;50.696;4.396;2023-05-10T02:15:22;13.10;99.90
23100;DHT22;53791;50.696;4.396;2023-05-10T02:18:00;13.20;99.90
23100;DHT22;53791;50.696;4.396;2023-05-10T02:20:34;13.10;99.90
23100;DHT22;53791;50.696;4.396;2023-05-10T02:23:16;13.10;99.90
23100;DHT22;53791;50.696;4.396;2023-05-10T02:25:50;13.10;99.90
23100;DHT22;53791;50.696;4.396;2023-05-10T02:28:23;13.00;99.90
23100;DHT22;53791;50.696;4.396;2023-05-10T02:30:52;13.10;99.90
23100;DHT22;53791;50.696;4.396;2023-05-10T02:33:32;13.20;99.90
23100;DHT22;53791;50.696;4.396;2023-05-10T02:36:08;13.10;99.90
23100;DHT22;53791;50.696;4.396;2023-05-10T02:38:42;13.20;99.90
23100;DHT22;53791;50.696;4.396;2023-05-10T02:41:13;13.20;99.90
23100;DHT22;53791;50.696;4.396;2023-05-10T02:43:45;13.10;99.90
23100;DHT22;53791;50.696;4.396;2023-05-10T02:46:20;13.10;99.90
23100;DHT22;53791;50.696;4.396;2023-05-10T02:48:51;13.10;99.90
23100;DHT22;53791;50.696;4.396;2023-05-10T02:51:32;13.10;99.90
23100;DHT22;53791;50.696;4.396;2023-05-10T02:54:08;13.00;99.90
23100;DHT22;53791;50.696;4.396;2023-05-10T02:56:34;13.20;99.90
23100;DHT22;53791;50.696;4.396;2023-05-10T02:59:07;13.10;99.90
23100;DHT22;53791;50.696;4.396;2023-05-10T03:01:39;13.20;99.90
23100;DHT22;53791;50.696;4.396;2023-05-10T03:04:09;13.10;99.90
23100;DHT22;53791;50.696;4.396;2023-05-10T03:06:37;13.00;99.90
23100;DHT22;53791;50.696;4.396;2023-05-10T03:09:11;13.10;99.90
23100;DHT22;53791;50.696;4.396;2023-05-10T03:11:56;13.10;99.90
23100;DHT22;53791;50.696;4.396;2023-05-10T03:14:45;13.10;99.90
23100;DHT22;53791;50.696;4.396;2023-05-10T03:20:04;13.10;99.90
23100;DHT22;53791;50.696;4.396;2023-05-10T03:22:44;13.00;99.90
23100;DHT22;53791;50.696;4.396;2023-05-10T03:25:23;13.00;99.90
23100;DHT22;53791;50.696;4.396;2023-05-10T03:27:54;12.90;99.90
23100;DHT22;53791;50.696;4.396;2023-05-10T03:30:28;13.00;99.90
23100;DHT22;53791;50.696;4.396;2023-05-10T03:33:03;12.90;99.90
23100;DHT22;53791;50.696;4.396;2023-05-10T03:35:34;12.90;99.90
23100;DHT22;53791;50.696;4.396;2023-05-10T03:38:02;12.90;99.90
23100;DHT22;53791;50.696;4.396;2023-05-10T03:40:32;12.90;99.90
23100;DHT22;53791;50.696;4.396;2023-05-10T03:43:03;12.80;99.90
23100;DHT22;53791;50.696;4.396;2023-05-10T03:45:39;12.80;99.90
23100;DHT22;53791;50.696;4.396;2023-05-10T03:48:09;12.90;99.90
23100;DHT22;53791;50.696;4.396;2023-05-10T03:50:44;12.90;99.90
23100;DHT22;53791;50.696;4.396;2023-05-10T03:53:16;12.90;99.90
23100;DHT22;53791;50.696;4.396;2023-05-10T03:55:47;12.80;99.90
23100;DHT22;53791;50.696;4.396;2023-05-10T03:58:22;12.80;99.90
23100;DHT22;53791;50.696;4.396;2023-05-10T04:00:53;12.80;99.90
23100;DHT22;53791;50.696;4.396;2023-05-10T04:03:22;12.70;99.90
23100;DHT22;53791;50.696;4.396;2023-05-10T04:05:59;12.70;99.90
23100;DHT22;53791;50.696;4.396;2023-05-10T04:08:31;12.80;99.90
23100;DHT22;53791;50.696;4.396;2023-05-10T04:11:11;12.80;99.90
23100;DHT22;53791;50.696;4.396;2023-05-10T04:13:39;12.70;99.90
23100;DHT22;53791;50.696;4.396;2023-05-10T04:16:10;12.80;99.90
23100;DHT22;53791;50.696;4.396;2023-05-10T04:18:40;12.70;99.90
23100;DHT22;53791;50.696;4.396;2023-05-10T04:21:13;12.70;99.90
23100;DHT22;53791;50.696;4.396;2023-05-10T04:23:48;12.50;99.90
23100;DHT22;53791;50.696;4.396;2023-05-10T04:26:25;12.50;99.90
23100;DHT22;53791;50.696;4.396;2023-05-10T04:28:54;12.50;99.90
23100;DHT22;53791;50.696;4.396;2023-05-10T04:31:23;12.40;99.90
23100;DHT22;53791;50.696;4.396;2023-05-10T04:33:50;12.50;99.90
23100;DHT22;53791;50.696;4.396;2023-05-10T04:36:18;12.50;99.90
23100;DHT22;53791;50.696;4.396;2023-05-10T04:38:56;12.50;99.90
23100;DHT22;53791;50.696;4.396;2023-05-10T04:41:22;12.40;99.90
23100;DHT22;53791;50.696;4.396;2023-05-10T04:43:59;12.40;99.90
23100;DHT22;53791;50.696;4.396;2023-05-10T04:46:24;12.40;99.90
23100;DHT22;53791;50.696;4.396;2023-05-10T04:48:55;12.50;99.90
23100;DHT22;53791;50.696;4.396;2023-05-10T04:51:25;12.50;99.90
23100;DHT22;53791;50.696;4.396;2023-05-10T04:53:59;12.40;99.90
23100;DHT22;53791;50.696;4.396;2023-05-10T04:56:28;12.40;99.90
23100;DHT22;53791;50.696;4.396;2023-05-10T04:59:01;12.40;99.90
23100;DHT22;53791;50.696;4.396;2023-05-10T05:01:34;12.40;99.90
23100;DHT22;53791;50.696;4.396;2023-05-10T05:04:06;12.40;99.90
23100;DHT22;53791;50.696;4.396;2023-05-10T05:06:34;12.30;99.90
23100;DHT22;53791;50.696;4.396;2023-05-10T05:09:06;12.40;99.90
23100;DHT22;53791;50.696;4.396;2023-05-10T05:11:36;12.30;99.90
23100;DHT22;53791;50.696;4.396;2023-05-10T05:14:07;12.20;99.90
23100;DHT22;53791;50.696;4.396;2023-05-10T05:16:34;12.10;99.90
23100;DHT22;53791;50.696;4.396;2023-05-10T05:19:07;12.20;99.90
23100;DHT22;53791;50.696;4.396;2023-05-10T05:21:31;12.30;99.90
23100;DHT22;53791;50.696;4.396;2023-05-10T05:24:00;12.20;99.90
23100;DHT22;53791;50.696;4.396;2023-05-10T05:26:27;12.20;99.90
23100;DHT22;53791;50.696;4.396;2023-05-10T05:28:55;12.20;99.90
23100;DHT22;53791;50.696;4.396;2023-05-10T05:31:26;12.20;99.90
23100;DHT22;53791;50.696;4.396;2023-05-10T05:33:53;12.20;99.90
23100;DHT22;53791;50.696;4.396;2023-05-10T05:36:21;12.20;99.90
23100;DHT22;53791;50.696;4.396;2023-05-10T05:38:50;12.20;99.90
23100;DHT22;53791;50.696;4.396;2023-05-10T05:41:20;12.20;99.90
23100;DHT22;53791;50.696;4.396;2023-05-10T05:43:53;12.10;99.90
23100;DHT22;53791;50.696;4.396;2023-05-10T05:46:31;12.00;99.90
23100;DHT22;53791;50.696;4.396;2023-05-10T05:49:09;12.00;99.90
23100;DHT22;53791;50.696;4.396;2023-05-10T05:51:37;12.00;99.90
23100;DHT22;53791;50.696;4.396;2023-05-10T05:54:08;11.90;99.90
23100;DHT22;53791;50.696;4.396;2023-05-10T05:56:39;11.80;99.90
23100;DHT22;53791;50.696;4.396;2023-05-10T05:59:09;11.70;99.90
23100;DHT22;53791;50.696;4.396;2023-05-10T06:01:38;11.70;99.90
23100;DHT22;53791;50.696;4.396;2023-05-10T06:06:41;11.70;99.90
23100;DHT22;53791;50.696;4.396;2023-05-10T06:09:15;11.70;99.90
23100;DHT22;53791;50.696;4.396;2023-05-10T06:11:49;11.70;99.90
23100;DHT22;53791;50.696;4.396;2023-05-10T06:14:21;11.70;99.90
23100;DHT22;53791;50.696;4.396;2023-05-10T06:19:21;11.70;99.90
23100;DHT22;53791;50.696;4.396;2023-05-10T06:21:51;11.90;99.90
23100;DHT22;53791;50.696;4.396;2023-05-10T06:24:20;11.90;99.90
23100;DHT22;53791;50.696;4.396;2023-05-10T06:26:50;11.90;99.90
23100;DHT22;53791;50.696;4.396;2023-05-10T06:29:25;11.90;99.90
23100;DHT22;53791;50.696;4.396;2023-05-10T06:31:55;11.70;99.90
23100;DHT22;53791;50.696;4.396;2023-05-10T06:34:27;11.70;99.90
23100;DHT22;53791;50.696;4.396;2023-05-10T06:36:58;11.70;99.90
23100;DHT22;53791;50.696;4.396;2023-05-10T06:39:28;11.80;99.90
23100;DHT22;53791;50.696;4.396;2023-05-10T06:42:00;11.80;99.90
23100;DHT22;53791;50.696;4.396;2023-05-10T06:44:29;11.80;99.90
23100;DHT22;53791;50.696;4.396;2023-05-10T06:46:59;11.80;99.90
23100;DHT22;53791;50.696;4.396;2023-05-10T06:49:26;11.80;99.90
23100;DHT22;53791;50.696;4.396;2023-05-10T06:51:55;11.90;99.90
23100;DHT22;53791;50.696;4.396;2023-05-10T06:54:25;11.90;99.90
23100;DHT22;53791;50.696;4.396;2023-05-10T06:56:52;12.00;99.90
23100;DHT22;53791;50.696;4.396;2023-05-10T06:59:21;12.00;99.90
23100;DHT22;53791;50.696;4.396;2023-05-10T07:01:49;12.00;99.90
23100;DHT22;53791;50.696;4.396;2023-05-10T07:04:19;12.00;99.90
23100;DHT22;53791;50.696;4.396;2023-05-10T07:06:50;12.00;99.90
23100;DHT22;53791;50.696;4.396;2023-05-10T07:09:22;12.00;99.90
23100;DHT22;53791;50.696;4.396;2023-05-10T07:11:46;12.00;99.90
23100;DHT22;53791;50.696;4.396;2023-05-10T07:14:15;11.90;99.90
23100;DHT22;53791;50.696;4.396;2023-05-10T07:16:43;11.90;99.90
23100;DHT22;53791;50.696;4.396;2023-05-10T07:19:10;11.90;99.90
23100;DHT22;53791;50.696;4.396;2023-05-10T07:21:46;12.00;99.90
23100;DHT22;53791;50.696;4.396;2023-05-10T07:24:13;12.00;99.90
23100;DHT22;53791;50.696;4.396;2023-05-10T07:26:40;12.00;99.90
23100;DHT22;53791;50.696;4.396;2023-05-10T07:29:08;11.90;99.90
23100;DHT22;53791;50.696;4.396;2023-05-10T07:31:36;11.80;99.90
23100;DHT22;53791;50.696;4.396;2023-05-10T07:34:04;11.80;99.90
23100;DHT22;53791;50.696;4.396;2023-05-10T07:36:31;11.80;99.90
23100;DHT22;53791;50.696;4.396;2023-05-10T07:39:06;11.90;99.90
23100;DHT22;53791;50.696;4.396;2023-05-10T07:41:32;11.90;99.90
23100;DHT22;53791;50.696;4.396;2023-05-10T07:44:01;11.90;99.90
23100;DHT22;53791;50.696;4.396;2023-05-10T07:46:30;11.90;99.90
23100;DHT22;53791;50.696;4.396;2023-05-10T07:48:59;12.00;99.90
23100;DHT22;53791;50.696;4.396;2023-05-10T07:51:26;12.00;99.90
23100;DHT22;53791;50.696;4.396;2023-05-10T07:53:54;12.10;99.90
23100;DHT22;53791;50.696;4.396;2023-05-10T07:56:31;12.10;99.90
23100;DHT22;53791;50.696;4.396;2023-05-10T07:59:02;12.00;99.90
23100;DHT22;53791;50.696;4.396;2023-05-10T08:01:34;12.10;99.90
23100;DHT22;53791;50.696;4.396;2023-05-10T08:04:07;12.20;99.90
23100;DHT22;53791;50.696;4.396;2023-05-10T08:06:37;12.10;99.90
23100;DHT22;53791;50.696;4.396;2023-05-10T08:09:06;12.20;99.90
23100;DHT22;53791;50.696;4.396;2023-05-10T08:11:37;12.20;99.90
23100;DHT22;53791;50.696;4.396;2023-05-10T08:14:10;12.20;99.90
23100;DHT22;53791;50.696;4.396;2023-05-10T08:16:47;12.20;99.90
23100;DHT22;53791;50.696;4.396;2023-05-10T08:19:21;12.30;99.90
23100;DHT22;53791;50.696;4.396;2023-05-10T08:21:52;12.30;99.90
23100;DHT22;53791;50.696;4.396;2023-05-10T08:24:24;12.40;99.90
23100;DHT22;53791;50.696;4.396;2023-05-10T08:26:51;12.40;99.90
23100;DHT22;53791;50.696;4.396;2023-05-10T08:29:20;12.50;99.90
23100;DHT22;53791;50.696;4.396;2023-05-10T08:31:48;12.50;99.90
23100;DHT22;53791;50.696;4.396;2023-05-10T08:34:17;12.40;99.90
23100;DHT22;53791;50.696;4.396;2023-05-10T08:36:46;12.30;99.90
23100;DHT22;53791;50.696;4.396;2023-05-10T08:39:16;12.30;99.90
23100;DHT22;53791;50.696;4.396;2023-05-10T08:41:49;12.40;99.90
23100;DHT22;53791;50.696;4.396;2023-05-10T08:44:20;12.30;99.90
23100;DHT22;53791;50.696;4.396;2023-05-10T08:46:52;12.40;99.90
23100;DHT22;53791;50.696;4.396;2023-05-10T08:49:19;12.40;99.90
23100;DHT22;53791;50.696;4.396;2023-05-10T08:51:55;12.50;99.90
23100;DHT22;53791;50.696;4.396;2023-05-10T08:54:25;12.50;99.90
23100;DHT22;53791;50.696;4.396;2023-05-10T08:56:59;12.60;99.90
23100;DHT22;53791;50.696;4.396;2023-05-10T08:59:27;12.50;99.90
23100;DHT22;53791;50.696;4.396;2023-05-10T09:02:01;12.40;99.90
23100;DHT22;53791;50.696;4.396;2023-05-10T09:04:30;12.50;99.90
23100;DHT22;53791;50.696;4.396;2023-05-10T09:06:57;12.40;99.90
23100;DHT22;53791;50.696;4.396;2023-05-10T09:09:25;12.40;99.90
23100;DHT22;53791;50.696;4.396;2023-05-10T09:11:59;12.30;99.90
23100;DHT22;53791;50.696;4.396;2023-05-10T09:14:29;12.40;99.90
23100;DHT22;53791;50.696;4.396;2023-05-10T09:16:57;12.50;99.90
23100;DHT22;53791;50.696;4.396;2023-05-10T09:19:29;12.50;99.90
23100;DHT22;53791;50.696;4.396;2023-05-10T09:22:03;12.50;99.90
23100;DHT22;53791;50.696;4.396;2023-05-10T09:24:32;12.50;99.90
23100;DHT22;53791;50.696;4.396;2023-05-10T09:27:08;12.50;99.90
23100;DHT22;53791;50.696;4.396;2023-05-10T09:29:46;12.50;99.90
23100;DHT22;53791;50.696;4.396;2023-05-10T09:32:15;12.60;99.90
23100;DHT22;53791;50.696;4.396;2023-05-10T09:34:49;12.60;99.90
23100;DHT22;53791;50.696;4.396;2023-05-10T09:37:29;12.60;99.90
23100;DHT22;53791;50.696;4.396;2023-05-10T09:39:53;12.50;99.90
23100;DHT22;53791;50.696;4.396;2023-05-10T09:42:29;12.60;99.90
23100;DHT22;53791;50.696;4.396;2023-05-10T09:45:01;12.70;99.90
23100;DHT22;53791;50.696;4.396;2023-05-10T09:47:34;12.80;99.90
23100;DHT22;53791;50.696;4.396;2023-05-10T09:50:04;12.90;99.90
23100;DHT22;53791;50.696;4.396;2023-05-10T09:52:55;13.00;99.90
23100;DHT22;53791;50.696;4.396;2023-05-10T09:55:21;13.10;99.90
23100;DHT22;53791;50.696;4.396;2023-05-10T09:57:59;13.00;99.90
23100;DHT22;53791;50.696;4.396;2023-05-10T10:00:37;13.10;99.90
23100;DHT22;53791;50.696;4.396;2023-05-10T10:03:03;13.10;99.90
23100;DHT22;53791;50.696;4.396;2023-05-10T10:05:39;13.30;99.90
23100;DHT22;53791;50.696;4.396;2023-05-10T10:10:44;13.20;99.90
23100;DHT22;53791;50.696;4.396;2023-05-10T10:13:06;13.20;99.90
23100;DHT22;53791;50.696;4.396;2023-05-10T10:15:42;13.20;99.90
23100;DHT22;53791;50.696;4.396;2023-05-10T10:18:16;13.00;99.90
23100;DHT22;53791;50.696;4.396;2023-05-10T10:23:16;13.00;99.90
23100;DHT22;53791;50.696;4.396;2023-05-10T10:25:44;13.10;99.90
23100;DHT22;53791;50.696;4.396;2023-05-10T10:30:56;12.90;99.90
23100;DHT22;53791;50.696;4.396;2023-05-10T10:34:00;12.90;99.90
23100;DHT22;53791;50.696;4.396;2023-05-10T10:36:25;12.80;99.90
23100;DHT22;53791;50.696;4.396;2023-05-10T10:38:59;12.80;99.90
23100;DHT22;53791;50.696;4.396;2023-05-10T10:41:35;13.00;99.90
23100;DHT22;53791;50.696;4.396;2023-05-10T10:44:25;13.00;99.90
23100;DHT22;53791;50.696;4.396;2023-05-10T10:49:54;13.10;99.90
23100;DHT22;53791;50.696;4.396;2023-05-10T10:52:28;13.00;99.90
23100;DHT22;53791;50.696;4.396;2023-05-10T10:55:05;13.00;99.90
23100;DHT22;53791;50.696;4.396;2023-05-10T10:57:47;13.40;99.90
23100;DHT22;53791;50.696;4.396;2023-05-10T11:00:36;13.40;99.90
23100;DHT22;53791;50.696;4.396;2023-05-10T11:03:08;13.60;99.90
23100;DHT22;53791;50.696;4.396;2023-05-10T11:05:45;13.60;99.90
23100;DHT22;53791;50.696;4.396;2023-05-10T11:08:29;13.60;99.90
23100;DHT22;53791;50.696;4.396;2023-05-10T11:11:04;13.70;99.90
23100;DHT22;53791;50.696;4.396;2023-05-10T11:13:47;13.80;99.90
23100;DHT22;53791;50.696;4.396;2023-05-10T11:16:23;13.80;99.90
23100;DHT22;53791;50.696;4.396;2023-05-10T11:19:04;13.90;99.90
23100;DHT22;53791;50.696;4.396;2023-05-10T11:21:34;13.90;99.90
23100;DHT22;53791;50.696;4.396;2023-05-10T11:24:09;13.80;99.90
23100;DHT22;53791;50.696;4.396;2023-05-10T11:26:39;13.80;99.90
23100;DHT22;53791;50.696;4.396;2023-05-10T11:29:12;13.90;99.90
23100;DHT22;53791;50.696;4.396;2023-05-10T11:31:46;14.00;99.90
23100;DHT22;53791;50.696;4.396;2023-05-10T11:34:25;14.00;99.90
23100;DHT22;53791;50.696;4.396;2023-05-10T11:36:54;13.80;99.90
23100;DHT22;53791;50.696;4.396;2023-05-10T11:39:28;13.90;99.90
23100;DHT22;53791;50.696;4.396;2023-05-10T11:48:09;14.10;99.90
23100;DHT22;53791;50.696;4.396;2023-05-10T12:00:14;14.50;99.90
23100;DHT22;53791;50.696;4.396;2023-05-10T12:02:50;14.70;99.90
23100;DHT22;53791;50.696;4.396;2023-05-10T12:10:33;14.80;99.90
23100;DHT22;53791;50.696;4.396;2023-05-10T12:12:59;14.90;99.90
23100;DHT22;53791;50.696;4.396;2023-05-10T12:15:31;15.00;99.90
23100;DHT22;53791;50.696;4.396;2023-05-10T12:18:00;15.00;99.90
23100;DHT22;53791;50.696;4.396;2023-05-10T12:20:34;14.90;99.90
23100;DHT22;53791;50.696;4.396;2023-05-10T12:23:04;14.80;99.90
23100;DHT22;53791;50.696;4.396;2023-05-10T12:25:36;14.60;99.90
23100;DHT22;53791;50.696;4.396;2023-05-10T12:28:09;14.70;99.90
23100;DHT22;53791;50.696;4.396;2023-05-10T12:30:45;14.80;99.90
23100;DHT22;53791;50.696;4.396;2023-05-10T12:33:17;14.90;99.90
23100;DHT22;53791;50.696;4.396;2023-05-10T12:35:50;14.80;99.90
23100;DHT22;53791;50.696;4.396;2023-05-10T12:38:37;14.80;99.90
23100;DHT22;53791;50.696;4.396;2023-05-10T12:41:07;14.80;99.90
23100;DHT22;53791;50.696;4.396;2023-05-10T12:43:35;14.80;99.90
23100;DHT22;53791;50.696;4.396;2023-05-10T12:46:10;14.70;99.90
23100;DHT22;53791;50.696;4.396;2023-05-10T12:48:42;14.80;99.90
23100;DHT22;53791;50.696;4.396;2023-05-10T12:51:13;14.90;99.90
23100;DHT22;53791;50.696;4.396;2023-05-10T12:53:43;14.90;99.90
23100;DHT22;53791;50.696;4.396;2023-05-10T12:56:20;15.00;99.90
23100;DHT22;53791;50.696;4.396;2023-05-10T12:58:46;15.00;99.90
23100;DHT22;53791;50.696;4.396;2023-05-10T13:01:17;15.10;99.90
23100;DHT22;53791;50.696;4.396;2023-05-10T13:03:48;14.90;99.90
23100;DHT22;53791;50.696;4.396;2023-05-10T13:06:16;14.90;99.90
23100;DHT22;53791;50.696;4.396;2023-05-10T13:08:51;15.00;99.90
23100;DHT22;53791;50.696;4.396;2023-05-10T13:11:17;14.90;99.90
23100;DHT22;53791;50.696;4.396;2023-05-10T13:13:47;14.90;99.90
23100;DHT22;53791;50.696;4.396;2023-05-10T13:16:22;14.90;99.90
23100;DHT22;53791;50.696;4.396;2023-05-10T13:18:54;15.00;99.90
23100;DHT22;53791;50.696;4.396;2023-05-10T13:21:23;15.00;99.90
23100;DHT22;53791;50.696;4.396;2023-05-10T13:23:54;15.00;99.90
23100;DHT22;53791;50.696;4.396;2023-05-10T13:26:26;15.00;99.90
23100;DHT22;53791;50.696;4.396;2023-05-10T13:28:55;15.00;99.90
23100;DHT22;53791;50.696;4.396;2023-05-10T13:31:29;15.00;99.90
23100;DHT22;53791;50.696;4.396;2023-05-10T13:34:03;14.90;99.90
23100;DHT22;53791;50.696;4.396;2023-05-10T13:36:27;14.80;99.90
23100;DHT22;53791;50.696;4.396;2023-05-10T13:41:28;14.80;99.90
23100;DHT22;53791;50.696;4.396;2023-05-10T13:44:02;14.80;99.90
23100;DHT22;53791;50.696;4.396;2023-05-10T13:46:32;14.90;99.90
23100;DHT22;53791;50.696;4.396;2023-05-10T13:49:14;14.90;99.90
23100;DHT22;53791;50.696;4.396;2023-05-10T13:51:47;14.90;99.90
23100;DHT22;53791;50.696;4.396;2023-05-10T13:57:36;15.00;99.90
23100;DHT22;53791;50.696;4.396;2023-05-10T13:59:21;15.00;99.90
23100;DHT22;53791;50.696;4.396;2023-05-10T14:02:01;15.00;99.90
23100;DHT22;53791;50.696;4.396;2023-05-10T14:04:37;15.00;99.90
23100;DHT22;53791;50.696;4.396;2023-05-10T14:09:52;15.20;99.90
23100;DHT22;53791;50.696;4.396;2023-05-10T14:12:30;15.20;99.90
23100;DHT22;53791;50.696;4.396;2023-05-10T14:15:04;15.10;99.90
23100;DHT22;53791;50.696;4.396;2023-05-10T14:17:40;15.10;99.90
23100;DHT22;53791;50.696;4.396;2023-05-10T14:20:58;15.10;99.90
23100;DHT22;53791;50.696;4.396;2023-05-10T14:22:53;15.20;99.90
23100;DHT22;53791;50.696;4.396;2023-05-10T14:25:31;15.20;99.90
23100;DHT22;53791;50.696;4.396;2023-05-10T14:28:11;15.20;99.90
23100;DHT22;53791;50.696;4.396;2023-05-10T14:30:44;15.10;99.90
23100;DHT22;53791;50.696;4.396;2023-05-10T14:33:24;15.20;99.90
23100;DHT22;53791;50.696;4.396;2023-05-10T14:38:35;15.20;99.90
23100;DHT22;53791;50.696;4.396;2023-05-10T14:41:17;15.30;99.90
23100;DHT22;53791;50.696;4.396;2023-05-10T14:43:48;15.20;99.90
23100;DHT22;53791;50.696;4.396;2023-05-10T14:46:42;15.30;99.90
23100;DHT22;53791;50.696;4.396;2023-05-10T14:49:18;15.20;99.90
23100;DHT22;53791;50.696;4.396;2023-05-10T14:51:49;15.30;99.90
23100;DHT22;53791;50.696;4.396;2023-05-10T14:54:29;15.20;99.90
23100;DHT22;53791;50.696;4.396;2023-05-10T14:59:39;15.30;99.90
23100;DHT22;53791;50.696;4.396;2023-05-10T15:02:06;15.30;99.90
23100;DHT22;53791;50.696;4.396;2023-05-10T15:04:43;15.20;99.90
23100;DHT22;53791;50.696;4.396;2023-05-10T15:07:13;15.20;99.90
23100;DHT22;53791;50.696;4.396;2023-05-10T15:09:42;15.00;99.90
23100;DHT22;53791;50.696;4.396;2023-05-10T15:12:22;14.90;99.90
23100;DHT22;53791;50.696;4.396;2023-05-10T15:14:56;14.70;99.90
23100;DHT22;53791;50.696;4.396;2023-05-10T15:17:21;14.50;99.90
23100;DHT22;53791;50.696;4.396;2023-05-10T15:20:02;14.40;99.90
23100;DHT22;53791;50.696;4.396;2023-05-10T15:22:26;14.40;99.90
23100;DHT22;53791;50.696;4.396;2023-05-10T15:24:54;14.30;99.90
23100;DHT22;53791;50.696;4.396;2023-05-10T15:29:53;14.20;99.90
23100;DHT22;53791;50.696;4.396;2023-05-10T15:32:26;14.20;99.90
23100;DHT22;53791;50.696;4.396;2023-05-10T15:34:56;14.10;99.90
23100;DHT22;53791;50.696;4.396;2023-05-10T15:37:26;14.10;99.90
23100;DHT22;53791;50.696;4.396;2023-05-10T15:39:57;14.10;99.90
23100;DHT22;53791;50.696;4.396;2023-05-10T15:42:26;14.00;99.90
23100;DHT22;53791;50.696;4.396;2023-05-10T15:47:32;14.00;99.90
23100;DHT22;53791;50.696;4.396;2023-05-10T15:49:58;14.10;99.90
23100;DHT22;53791;50.696;4.396;2023-05-10T15:52:36;14.10;99.90
23100;DHT22;53791;50.696;4.396;2023-05-10T15:55:08;14.20;99.90
23100;DHT22;53791;50.696;4.396;2023-05-10T15:57:35;14.30;99.90
23100;DHT22;53791;50.696;4.396;2023-05-10T16:00:08;14.40;99.90
23100;DHT22;53791;50.696;4.396;2023-05-10T16:05:08;14.60;99.90
23100;DHT22;53791;50.696;4.396;2023-05-10T16:10:12;14.70;99.90
23100;DHT22;53791;50.696;4.396;2023-05-10T16:12:45;14.70;99.90
23100;DHT22;53791;50.696;4.396;2023-05-10T16:15:12;14.70;99.90
23100;DHT22;53791;50.696;4.396;2023-05-10T16:20:13;14.60;99.90
23100;DHT22;53791;50.696;4.396;2023-05-10T16:22:45;14.60;99.90
23100;DHT22;53791;50.696;4.396;2023-05-10T16:25:17;14.50;99.90
23100;DHT22;53791;50.696;4.396;2023-05-10T16:27:53;14.50;99.90
23100;DHT22;53791;50.696;4.396;2023-05-10T16:30:25;14.50;99.90
23100;DHT22;53791;50.696;4.396;2023-05-10T16:32:59;14.50;99.90
23100;DHT22;53791;50.696;4.396;2023-05-10T16:35:29;14.50;99.90
23100;DHT22;53791;50.696;4.396;2023-05-10T16:38:45;14.60;99.90
23100;DHT22;53791;50.696;4.396;2023-05-10T16:40:46;14.60;99.90
23100;DHT22;53791;50.696;4.396;2023-05-10T16:43:20;14.70;99.90
23100;DHT22;53791;50.696;4.396;2023-05-10T16:45:49;14.70;99.90
23100;DHT22;53791;50.696;4.396;2023-05-10T16:48:29;14.70;99.90
23100;DHT22;53791;50.696;4.396;2023-05-10T16:50:55;14.80;99.90
23100;DHT22;53791;50.696;4.396;2023-05-10T16:53:21;14.90;99.90
23100;DHT22;53791;50.696;4.396;2023-05-10T16:55:51;15.00;99.90
23100;DHT22;53791;50.696;4.396;2023-05-10T16:58:25;15.00;99.90
23100;DHT22;53791;50.696;4.396;2023-05-10T17:00:54;15.10;99.90
23100;DHT22;53791;50.696;4.396;2023-05-10T17:03:22;15.20;99.90
23100;DHT22;53791;50.696;4.396;2023-05-10T17:05:54;15.30;99.90
23100;DHT22;53791;50.696;4.396;2023-05-10T17:08:30;15.30;99.90
23100;DHT22;53791;50.696;4.396;2023-05-10T17:13:29;15.50;99.90
23100;DHT22;53791;50.696;4.396;2023-05-10T17:15:57;15.60;99.90
23100;DHT22;53791;50.696;4.396;2023-05-10T17:18:29;15.60;99.90